sensor_id;sensor_type;location;lat;lon;timestamp;P1;durP1;ratioP1;P2;durP2;ratioP2
16770;SDS011;8503;52.472;13.344;2023-06-19T00:00:41;18.10;;;12.27;;
16770;SDS011;8503;52.472;13.344;2023-06-19T00:01:25;18.73;;;11.68;;
16770;SDS011;8503;52.472;13.344;2023-06-19T00:02:08;18.17;;;11.65;;
16770;SDS011;8503;52.472;13.344;2023-06-19T00:02:51;16.75;;;13.02;;
16770;SDS011;8503;52.472;13.344;2023-06-19T00:03:36;17.48;;;12.15;;
16770;SDS011;8503;52.472;13.344;2023-06-19T00:04:19;17.23;;;11.85;;
16770;SDS011;8503;52.472;13.344;2023-06-19T00:05:02;19.73;;;13.43;;
16770;SDS011;8503;52.472;13.344;2023-06-19T00:05:46;19.23;;;13.80;;
16770;SDS011;8503;52.472;13.344;2023-06-19T00:06:29;20.85;;;12.95;;
16770;SDS011;8503;52.472;13.344;2023-06-19T00:07:12;19.98;;;12.75;;
16770;SDS011;8503;52.472;13.344;2023-06-19T00:07:56;18.27;;;12.80;;
16770;SDS011;8503;52.472;13.344;2023-06-19T00:08:38;18.05;;;12.32;;
16770;SDS011;8503;52.472;13.344;2023-06-19T00:09:23;17.15;;;11.77;;
16770;SDS011;8503;52.472;13.344;2023-06-19T00:10:06;19.83;;;12.70;;
16770;SDS011;8503;52.472;13.344;2023-06-19T00:10:50;18.48;;;12.48;;
16770;SDS011;8503;52.472;13.344;2023-06-19T00:11:33;20.30;;;13.55;;
16770;SDS011;8503;52.472;13.344;2023-06-19T00:12:16;15.65;;;11.73;;
16770;SDS011;8503;52.472;13.344;2023-06-19T00:13:00;17.98;;;12.05;;
16770;SDS011;8503;52.472;13.344;2023-06-19T00:13:45;16.77;;;12.25;;
16770;SDS011;8503;52.472;13.344;2023-06-19T00:14:29;20.52;;;12.63;;
16770;SDS011;8503;52.472;13.344;2023-06-19T00:15:12;18.85;;;12.85;;
16770;SDS011;8503;52.472;13.344;2023-06-19T00:15:55;17.58;;;11.82;;
16770;SDS011;8503;52.472;13.344;2023-06-19T00:16:42;23.00;;;13.55;;
16770;SDS011;8503;52.472;13.344;2023-06-19T00:17:25;19.33;;;12.45;;
16770;SDS011;8503;52.472;13.344;2023-06-19T00:18:07;18.40;;;12.40;;
16770;SDS011;8503;52.472;13.344;2023-06-19T00:18:52;18.30;;;13.35;;
16770;SDS011;8503;52.472;13.344;2023-06-19T00:19:37;17.02;;;13.05;;
16770;SDS011;8503;52.472;13.344;2023-06-19T00:20:19;18.88;;;14.48;;
16770;SDS011;8503;52.472;13.344;2023-06-19T00:21:03;17.40;;;12.02;;
16770;SDS011;8503;52.472;13.344;2023-06-19T00:21:47;17.58;;;12.93;;
16770;SDS011;8503;52.472;13.344;2023-06-19T00:22:30;17.25;;;12.55;;
16770;SDS011;8503;52.472;13.344;2023-06-19T00:23:14;18.42;;;13.70;;
16770;SDS011;8503;52.472;13.344;2023-06-19T00:23:59;17.52;;;12.55;;
16770;SDS011;8503;52.472;13.344;2023-06-19T00:24:42;17.30;;;11.82;;
16770;SDS011;8503;52.472;13.344;2023-06-19T00:25:26;19.40;;;14.70;;
16770;SDS011;8503;52.472;13.344;2023-06-19T00:26:09;17.98;;;12.57;;
16770;SDS011;8503;52.472;13.344;2023-06-19T00:26:55;18.02;;;12.57;;
16770;SDS011;8503;52.472;13.344;2023-06-19T00:27:43;17.42;;;12.10;;
16770;SDS011;8503;52.472;13.344;2023-06-19T00:28:28;16.35;;;11.55;;
16770;SDS011;8503;52.472;13.344;2023-06-19T00:29:14;17.45;;;12.50;;
16770;SDS011;8503;52.472;13.344;2023-06-19T00:29:58;15.98;;;11.70;;
16770;SDS011;8503;52.472;13.344;2023-06-19T00:30:43;17.40;;;12.30;;
16770;SDS011;8503;52.472;13.344;2023-06-19T00:31:26;17.17;;;12.30;;
16770;SDS011;8503;52.472;13.344;2023-06-19T00:32:10;17.88;;;12.65;;
16770;SDS011;8503;52.472;13.344;2023-06-19T00:32:53;17.98;;;12.82;;
16770;SDS011;8503;52.472;13.344;2023-06-19T00:33:37;16.45;;;12.45;;
16770;SDS011;8503;52.472;13.344;2023-06-19T00:34:21;19.30;;;12.10;;
16770;SDS011;8503;52.472;13.344;2023-06-19T00:35:05;17.88;;;13.00;;
16770;SDS011;8503;52.472;13.344;2023-06-19T00:35:49;16.75;;;12.20;;
16770;SDS011;8503;52.472;13.344;2023-06-19T00:36:33;20.38;;;13.02;;
16770;SDS011;8503;52.472;13.344;2023-06-19T00:37:21;18.42;;;13.23;;
16770;SDS011;8503;52.472;13.344;2023-06-19T00:38:04;18.95;;;14.23;;
16770;SDS011;8503;52.472;13.344;2023-06-19T00:38:49;17.90;;;13.45;;
16770;SDS011;8503;52.472;13.344;2023-06-19T00:39:33;16.23;;;12.30;;
16770;SDS011;8503;52.472;13.344;2023-06-19T00:40:19;20.90;;;12.88;;
16770;SDS011;8503;52.472;13.344;2023-06-19T00:41:11;19.52;;;13.25;;
16770;SDS011;8503;52.472;13.344;2023-06-19T00:41:55;16.65;;;12.57;;
16770;SDS011;8503;52.472;13.344;2023-06-19T00:42:38;18.80;;;12.93;;
16770;SDS011;8503;52.472;13.344;2023-06-19T00:43:21;16.42;;;13.60;;
16770;SDS011;8503;52.472;13.344;2023-06-19T00:44:05;16.35;;;12.50;;
16770;SDS011;8503;52.472;13.344;2023-06-19T00:44:49;17.58;;;12.55;;
16770;SDS011;8503;52.472;13.344;2023-06-19T00:45:35;19.23;;;13.23;;
16770;SDS011;8503;52.472;13.344;2023-06-19T00:46:19;16.92;;;13.23;;
16770;SDS011;8503;52.472;13.344;2023-06-19T00:47:02;17.00;;;12.75;;
16770;SDS011;8503;52.472;13.344;2023-06-19T00:47:46;17.60;;;12.95;;
16770;SDS011;8503;52.472;13.344;2023-06-19T00:48:30;19.27;;;12.05;;
16770;SDS011;8503;52.472;13.344;2023-06-19T00:49:15;16.02;;;11.55;;
16770;SDS011;8503;52.472;13.344;2023-06-19T00:49:58;17.50;;;12.13;;
16770;SDS011;8503;52.472;13.344;2023-06-19T00:50:41;18.23;;;13.65;;
16770;SDS011;8503;52.472;13.344;2023-06-19T00:51:24;17.15;;;12.13;;
16770;SDS011;8503;52.472;13.344;2023-06-19T00:52:08;16.48;;;12.82;;
16770;SDS011;8503;52.472;13.344;2023-06-19T00:52:51;16.67;;;12.57;;
16770;SDS011;8503;52.472;13.344;2023-06-19T00:53:33;19.00;;;13.63;;
16770;SDS011;8503;52.472;13.344;2023-06-19T00:54:18;19.98;;;13.48;;
16770;SDS011;8503;52.472;13.344;2023-06-19T00:55:03;18.08;;;12.85;;
16770;SDS011;8503;52.472;13.344;2023-06-19T00:55:48;16.25;;;12.50;;
16770;SDS011;8503;52.472;13.344;2023-06-19T00:56:34;18.27;;;13.70;;
16770;SDS011;8503;52.472;13.344;2023-06-19T00:57:21;20.25;;;12.57;;
16770;SDS011;8503;52.472;13.344;2023-06-19T00:58:05;15.00;;;11.75;;
16770;SDS011;8503;52.472;13.344;2023-06-19T00:58:48;17.50;;;13.38;;
16770;SDS011;8503;52.472;13.344;2023-06-19T00:59:32;21.17;;;12.80;;
16770;SDS011;8503;52.472;13.344;2023-06-19T01:00:18;17.85;;;13.63;;
16770;SDS011;8503;52.472;13.344;2023-06-19T01:01:02;18.05;;;12.18;;
16770;SDS011;8503;52.472;13.344;2023-06-19T01:01:50;19.23;;;13.48;;
16770;SDS011;8503;52.472;13.344;2023-06-19T01:02:34;21.23;;;12.60;;
16770;SDS011;8503;52.472;13.344;2023-06-19T01:03:17;18.95;;;12.57;;
16770;SDS011;8503;52.472;13.344;2023-06-19T01:04:01;16.60;;;12.55;;
16770;SDS011;8503;52.472;13.344;2023-06-19T01:04:44;18.30;;;13.75;;
16770;SDS011;8503;52.472;13.344;2023-06-19T01:05:28;17.02;;;12.05;;
16770;SDS011;8503;52.472;13.344;2023-06-19T01:06:13;16.70;;;12.43;;
16770;SDS011;8503;52.472;13.344;2023-06-19T01:07:04;19.52;;;12.55;;
16770;SDS011;8503;52.472;13.344;2023-06-19T01:07:53;14.73;;;10.65;;
16770;SDS011;8503;52.472;13.344;2023-06-19T01:08:45;16.27;;;11.82;;
16770;SDS011;8503;52.472;13.344;2023-06-19T01:09:38;18.50;;;14.50;;
16770;SDS011;8503;52.472;13.344;2023-06-19T01:10:30;18.73;;;13.13;;
16770;SDS011;8503;52.472;13.344;2023-06-19T01:11:18;17.60;;;12.30;;
16770;SDS011;8503;52.472;13.344;2023-06-19T01:12:09;20.83;;;13.90;;
16770;SDS011;8503;52.472;13.344;2023-06-19T01:12:58;17.25;;;13.45;;
16770;SDS011;8503;52.472;13.344;2023-06-19T01:13:45;16.85;;;12.90;;
16770;SDS011;8503;52.472;13.344;2023-06-19T01:14:38;16.08;;;12.52;;
16770;SDS011;8503;52.472;13.344;2023-06-19T01:15:31;16.70;;;12.80;;
16770;SDS011;8503;52.472;13.344;2023-06-19T01:16:14;17.23;;;12.63;;
16770;SDS011;8503;52.472;13.344;2023-06-19T01:16:58;17.10;;;11.98;;
16770;SDS011;8503;52.472;13.344;2023-06-19T01:17:42;17.65;;;12.82;;
16770;SDS011;8503;52.472;13.344;2023-06-19T01:18:29;19.23;;;13.82;;
16770;SDS011;8503;52.472;13.344;2023-06-19T01:19:15;17.38;;;12.75;;
16770;SDS011;8503;52.472;13.344;2023-06-19T01:20:01;17.48;;;11.90;;
16770;SDS011;8503;52.472;13.344;2023-06-19T01:20:52;16.02;;;13.23;;
16770;SDS011;8503;52.472;13.344;2023-06-19T01:21:34;17.10;;;12.25;;
16770;SDS011;8503;52.472;13.344;2023-06-19T01:22:24;17.70;;;12.63;;
16770;SDS011;8503;52.472;13.344;2023-06-19T01:23:08;17.95;;;13.00;;
16770;SDS011;8503;52.472;13.344;2023-06-19T01:23:53;16.95;;;12.70;;
16770;SDS011;8503;52.472;13.344;2023-06-19T01:24:37;16.85;;;12.15;;
16770;SDS011;8503;52.472;13.344;2023-06-19T01:25:20;18.92;;;13.45;;
16770;SDS011;8503;52.472;13.344;2023-06-19T01:26:07;16.83;;;12.40;;
16770;SDS011;8503;52.472;13.344;2023-06-19T01:26:50;17.25;;;12.38;;
16770;SDS011;8503;52.472;13.344;2023-06-19T01:27:33;18.52;;;13.43;;
16770;SDS011;8503;52.472;13.344;2023-06-19T01:28:17;18.08;;;11.88;;
16770;SDS011;8503;52.472;13.344;2023-06-19T01:29:00;16.27;;;12.43;;
16770;SDS011;8503;52.472;13.344;2023-06-19T01:29:44;18.25;;;13.15;;
16770;SDS011;8503;52.472;13.344;2023-06-19T01:30:27;17.58;;;12.77;;
16770;SDS011;8503;52.472;13.344;2023-06-19T01:31:11;17.15;;;12.85;;
16770;SDS011;8503;52.472;13.344;2023-06-19T01:31:59;17.50;;;12.70;;
16770;SDS011;8503;52.472;13.344;2023-06-19T01:32:52;15.88;;;12.82;;
16770;SDS011;8503;52.472;13.344;2023-06-19T01:33:40;18.48;;;13.50;;
16770;SDS011;8503;52.472;13.344;2023-06-19T01:34:28;17.95;;;14.02;;
16770;SDS011;8503;52.472;13.344;2023-06-19T01:35:12;17.73;;;12.82;;
16770;SDS011;8503;52.472;13.344;2023-06-19T01:36:00;20.13;;;14.20;;
16770;SDS011;8503;52.472;13.344;2023-06-19T01:36:45;20.10;;;13.80;;
16770;SDS011;8503;52.472;13.344;2023-06-19T01:37:31;17.25;;;12.35;;
16770;SDS011;8503;52.472;13.344;2023-06-19T01:38:15;19.55;;;13.00;;
16770;SDS011;8503;52.472;13.344;2023-06-19T01:39:00;15.93;;;13.52;;
16770;SDS011;8503;52.472;13.344;2023-06-19T01:39:43;20.05;;;13.50;;
16770;SDS011;8503;52.472;13.344;2023-06-19T01:40:29;17.75;;;13.00;;
16770;SDS011;8503;52.472;13.344;2023-06-19T01:41:13;21.33;;;14.40;;
16770;SDS011;8503;52.472;13.344;2023-06-19T01:41:58;18.50;;;13.07;;
16770;SDS011;8503;52.472;13.344;2023-06-19T01:42:42;20.33;;;13.82;;
16770;SDS011;8503;52.472;13.344;2023-06-19T01:43:26;21.80;;;13.35;;
16770;SDS011;8503;52.472;13.344;2023-06-19T01:44:12;19.25;;;13.60;;
16770;SDS011;8503;52.472;13.344;2023-06-19T01:44:55;19.50;;;14.07;;
16770;SDS011;8503;52.472;13.344;2023-06-19T01:45:38;19.77;;;13.55;;
16770;SDS011;8503;52.472;13.344;2023-06-19T01:46:22;16.60;;;12.77;;
16770;SDS011;8503;52.472;13.344;2023-06-19T01:47:09;16.83;;;13.35;;
16770;SDS011;8503;52.472;13.344;2023-06-19T01:47:53;17.05;;;14.18;;
16770;SDS011;8503;52.472;13.344;2023-06-19T01:48:37;16.92;;;12.95;;
16770;SDS011;8503;52.472;13.344;2023-06-19T01:49:21;18.02;;;13.77;;
16770;SDS011;8503;52.472;13.344;2023-06-19T01:50:05;17.77;;;14.07;;
16770;SDS011;8503;52.472;13.344;2023-06-19T01:50:49;21.52;;;13.35;;
16770;SDS011;8503;52.472;13.344;2023-06-19T01:51:42;18.80;;;14.05;;
16770;SDS011;8503;52.472;13.344;2023-06-19T01:52:25;21.88;;;14.55;;
16770;SDS011;8503;52.472;13.344;2023-06-19T01:53:09;20.98;;;13.23;;
16770;SDS011;8503;52.472;13.344;2023-06-19T01:53:53;18.80;;;13.43;;
16770;SDS011;8503;52.472;13.344;2023-06-19T01:54:35;19.67;;;14.05;;
16770;SDS011;8503;52.472;13.344;2023-06-19T01:55:19;18.23;;;13.70;;
16770;SDS011;8503;52.472;13.344;2023-06-19T01:56:02;22.45;;;14.68;;
16770;SDS011;8503;52.472;13.344;2023-06-19T01:56:46;19.23;;;14.95;;
16770;SDS011;8503;52.472;13.344;2023-06-19T01:57:30;17.58;;;13.13;;
16770;SDS011;8503;52.472;13.344;2023-06-19T01:58:14;22.17;;;13.90;;
16770;SDS011;8503;52.472;13.344;2023-06-19T01:58:57;17.20;;;13.00;;
16770;SDS011;8503;52.472;13.344;2023-06-19T01:59:41;17.35;;;14.15;;
16770;SDS011;8503;52.472;13.344;2023-06-19T02:00:24;18.90;;;13.40;;
16770;SDS011;8503;52.472;13.344;2023-06-19T02:01:07;17.75;;;13.73;;
16770;SDS011;8503;52.472;13.344;2023-06-19T02:01:51;18.95;;;13.23;;
16770;SDS011;8503;52.472;13.344;2023-06-19T02:02:35;17.13;;;14.18;;
16770;SDS011;8503;52.472;13.344;2023-06-19T02:03:18;20.30;;;15.57;;
16770;SDS011;8503;52.472;13.344;2023-06-19T02:04:02;17.83;;;15.15;;
16770;SDS011;8503;52.472;13.344;2023-06-19T02:04:45;19.10;;;12.50;;
16770;SDS011;8503;52.472;13.344;2023-06-19T02:05:29;18.17;;;14.13;;
16770;SDS011;8503;52.472;13.344;2023-06-19T02:06:12;18.67;;;13.25;;
16770;SDS011;8503;52.472;13.344;2023-06-19T02:06:56;18.90;;;14.25;;
16770;SDS011;8503;52.472;13.344;2023-06-19T02:07:39;18.48;;;13.80;;
16770;SDS011;8503;52.472;13.344;2023-06-19T02:08:24;21.52;;;14.15;;
16770;SDS011;8503;52.472;13.344;2023-06-19T02:09:07;18.70;;;14.40;;
16770;SDS011;8503;52.472;13.344;2023-06-19T02:09:49;18.60;;;13.93;;
16770;SDS011;8503;52.472;13.344;2023-06-19T02:10:33;19.45;;;14.40;;
16770;SDS011;8503;52.472;13.344;2023-06-19T02:11:16;21.35;;;14.93;;
16770;SDS011;8503;52.472;13.344;2023-06-19T02:11:59;21.33;;;15.65;;
16770;SDS011;8503;52.472;13.344;2023-06-19T02:12:42;22.58;;;13.38;;
16770;SDS011;8503;52.472;13.344;2023-06-19T02:13:25;19.17;;;14.05;;
16770;SDS011;8503;52.472;13.344;2023-06-19T02:14:09;17.67;;;13.77;;
16770;SDS011;8503;52.472;13.344;2023-06-19T02:14:52;18.63;;;15.10;;
16770;SDS011;8503;52.472;13.344;2023-06-19T02:15:35;23.45;;;15.82;;
16770;SDS011;8503;52.472;13.344;2023-06-19T02:16:19;20.70;;;14.68;;
16770;SDS011;8503;52.472;13.344;2023-06-19T02:17:02;19.80;;;15.10;;
16770;SDS011;8503;52.472;13.344;2023-06-19T02:17:45;20.60;;;14.98;;
16770;SDS011;8503;52.472;13.344;2023-06-19T02:18:29;20.58;;;13.80;;
16770;SDS011;8503;52.472;13.344;2023-06-19T02:19:12;21.02;;;16.10;;
16770;SDS011;8503;52.472;13.344;2023-06-19T02:19:54;17.92;;;13.18;;
16770;SDS011;8503;52.472;13.344;2023-06-19T02:20:38;22.42;;;15.40;;
16770;SDS011;8503;52.472;13.344;2023-06-19T02:21:21;20.60;;;15.48;;
16770;SDS011;8503;52.472;13.344;2023-06-19T02:22:05;21.02;;;13.80;;
16770;SDS011;8503;52.472;13.344;2023-06-19T02:22:48;20.08;;;14.30;;
16770;SDS011;8503;52.472;13.344;2023-06-19T02:23:32;21.05;;;14.98;;
16770;SDS011;8503;52.472;13.344;2023-06-19T02:24:16;19.55;;;14.70;;
16770;SDS011;8503;52.472;13.344;2023-06-19T02:24:58;22.23;;;15.13;;
16770;SDS011;8503;52.472;13.344;2023-06-19T02:25:41;19.10;;;14.07;;
16770;SDS011;8503;52.472;13.344;2023-06-19T02:26:25;20.88;;;15.48;;
16770;SDS011;8503;52.472;13.344;2023-06-19T02:27:10;21.00;;;14.10;;
16770;SDS011;8503;52.472;13.344;2023-06-19T02:27:53;19.80;;;14.60;;
16770;SDS011;8503;52.472;13.344;2023-06-19T02:28:37;19.45;;;14.60;;
16770;SDS011;8503;52.472;13.344;2023-06-19T02:29:20;21.63;;;14.02;;
16770;SDS011;8503;52.472;13.344;2023-06-19T02:30:03;19.75;;;15.45;;
16770;SDS011;8503;52.472;13.344;2023-06-19T02:30:48;18.48;;;14.77;;
16770;SDS011;8503;52.472;13.344;2023-06-19T02:31:31;19.20;;;14.63;;
16770;SDS011;8503;52.472;13.344;2023-06-19T02:32:14;21.45;;;15.27;;
16770;SDS011;8503;52.472;13.344;2023-06-19T02:32:57;20.92;;;15.15;;
16770;SDS011;8503;52.472;13.344;2023-06-19T02:33:40;17.98;;;13.73;;
16770;SDS011;8503;52.472;13.344;2023-06-19T02:34:24;19.45;;;15.13;;
16770;SDS011;8503;52.472;13.344;2023-06-19T02:35:09;20.35;;;15.73;;
16770;SDS011;8503;52.472;13.344;2023-06-19T02:35:53;18.02;;;14.50;;
16770;SDS011;8503;52.472;13.344;2023-06-19T02:36:40;17.35;;;14.10;;
16770;SDS011;8503;52.472;13.344;2023-06-19T02:37:23;21.67;;;15.35;;
16770;SDS011;8503;52.472;13.344;2023-06-19T02:38:06;21.20;;;15.43;;
16770;SDS011;8503;52.472;13.344;2023-06-19T02:38:51;20.27;;;15.38;;
16770;SDS011;8503;52.472;13.344;2023-06-19T02:39:34;18.17;;;15.05;;
16770;SDS011;8503;52.472;13.344;2023-06-19T02:40:18;20.13;;;15.48;;
16770;SDS011;8503;52.472;13.344;2023-06-19T02:41:01;24.27;;;16.80;;
16770;SDS011;8503;52.472;13.344;2023-06-19T02:41:45;20.35;;;14.20;;
16770;SDS011;8503;52.472;13.344;2023-06-19T02:42:28;20.45;;;15.50;;
16770;SDS011;8503;52.472;13.344;2023-06-19T02:43:10;20.45;;;14.68;;
16770;SDS011;8503;52.472;13.344;2023-06-19T02:43:54;19.60;;;15.18;;
16770;SDS011;8503;52.472;13.344;2023-06-19T02:44:37;22.65;;;16.00;;
16770;SDS011;8503;52.472;13.344;2023-06-19T02:45:21;22.40;;;15.95;;
16770;SDS011;8503;52.472;13.344;2023-06-19T02:46:04;19.25;;;15.38;;
16770;SDS011;8503;52.472;13.344;2023-06-19T02:46:46;20.33;;;14.50;;
16770;SDS011;8503;52.472;13.344;2023-06-19T02:47:30;21.38;;;15.77;;
16770;SDS011;8503;52.472;13.344;2023-06-19T02:48:13;22.58;;;15.82;;
16770;SDS011;8503;52.472;13.344;2023-06-19T02:48:57;18.52;;;14.48;;
16770;SDS011;8503;52.472;13.344;2023-06-19T02:49:41;20.17;;;14.02;;
16770;SDS011;8503;52.472;13.344;2023-06-19T02:50:27;20.73;;;15.77;;
16770;SDS011;8503;52.472;13.344;2023-06-19T02:51:10;21.42;;;15.60;;
16770;SDS011;8503;52.472;13.344;2023-06-19T02:51:55;21.75;;;14.10;;
16770;SDS011;8503;52.472;13.344;2023-06-19T02:52:38;16.77;;;14.80;;
16770;SDS011;8503;52.472;13.344;2023-06-19T02:53:21;21.67;;;15.38;;
16770;SDS011;8503;52.472;13.344;2023-06-19T02:54:06;22.42;;;15.38;;
16770;SDS011;8503;52.472;13.344;2023-06-19T02:54:48;19.92;;;15.82;;
16770;SDS011;8503;52.472;13.344;2023-06-19T02:55:32;20.40;;;15.05;;
16770;SDS011;8503;52.472;13.344;2023-06-19T02:56:15;19.30;;;14.45;;
16770;SDS011;8503;52.472;13.344;2023-06-19T02:56:59;22.67;;;15.90;;
16770;SDS011;8503;52.472;13.344;2023-06-19T02:57:42;20.48;;;15.15;;
16770;SDS011;8503;52.472;13.344;2023-06-19T02:58:28;22.40;;;15.95;;
16770;SDS011;8503;52.472;13.344;2023-06-19T02:59:11;21.38;;;15.95;;
16770;SDS011;8503;52.472;13.344;2023-06-19T02:59:55;21.95;;;16.85;;
16770;SDS011;8503;52.472;13.344;2023-06-19T03:00:38;21.10;;;15.73;;
16770;SDS011;8503;52.472;13.344;2023-06-19T03:01:21;21.40;;;15.75;;
16770;SDS011;8503;52.472;13.344;2023-06-19T03:02:05;19.02;;;15.05;;
16770;SDS011;8503;52.472;13.344;2023-06-19T03:02:48;22.20;;;15.15;;
16770;SDS011;8503;52.472;13.344;2023-06-19T03:03:33;23.02;;;15.27;;
16770;SDS011;8503;52.472;13.344;2023-06-19T03:04:18;20.83;;;15.88;;
16770;SDS011;8503;52.472;13.344;2023-06-19T03:05:02;21.00;;;15.48;;
16770;SDS011;8503;52.472;13.344;2023-06-19T03:05:46;23.67;;;16.52;;
16770;SDS011;8503;52.472;13.344;2023-06-19T03:06:29;23.17;;;15.52;;
16770;SDS011;8503;52.472;13.344;2023-06-19T03:07:14;17.95;;;13.82;;
16770;SDS011;8503;52.472;13.344;2023-06-19T03:07:57;21.70;;;16.50;;
16770;SDS011;8503;52.472;13.344;2023-06-19T03:08:40;21.85;;;16.48;;
16770;SDS011;8503;52.472;13.344;2023-06-19T03:09:25;24.15;;;14.98;;
16770;SDS011;8503;52.472;13.344;2023-06-19T03:10:09;21.27;;;15.80;;
16770;SDS011;8503;52.472;13.344;2023-06-19T03:10:53;20.40;;;14.77;;
16770;SDS011;8503;52.472;13.344;2023-06-19T03:11:35;21.42;;;14.75;;
16770;SDS011;8503;52.472;13.344;2023-06-19T03:12:19;21.52;;;15.40;;
16770;SDS011;8503;52.472;13.344;2023-06-19T03:13:02;23.10;;;15.98;;
16770;SDS011;8503;52.472;13.344;2023-06-19T03:13:46;17.40;;;14.63;;
16770;SDS011;8503;52.472;13.344;2023-06-19T03:14:32;19.88;;;14.65;;
16770;SDS011;8503;52.472;13.344;2023-06-19T03:15:16;20.60;;;15.90;;
16770;SDS011;8503;52.472;13.344;2023-06-19T03:15:58;21.38;;;16.17;;
16770;SDS011;8503;52.472;13.344;2023-06-19T03:16:41;20.10;;;14.77;;
16770;SDS011;8503;52.472;13.344;2023-06-19T03:17:25;22.02;;;16.48;;
16770;SDS011;8503;52.472;13.344;2023-06-19T03:18:08;19.90;;;14.88;;
16770;SDS011;8503;52.472;13.344;2023-06-19T03:18:52;23.52;;;15.57;;
16770;SDS011;8503;52.472;13.344;2023-06-19T03:19:35;18.95;;;14.10;;
16770;SDS011;8503;52.472;13.344;2023-06-19T03:20:18;23.10;;;15.35;;
16770;SDS011;8503;52.472;13.344;2023-06-19T03:21:03;20.85;;;16.05;;
16770;SDS011;8503;52.472;13.344;2023-06-19T03:21:45;20.83;;;14.90;;
16770;SDS011;8503;52.472;13.344;2023-06-19T03:22:28;19.15;;;14.52;;
16770;SDS011;8503;52.472;13.344;2023-06-19T03:23:12;21.10;;;15.43;;
16770;SDS011;8503;52.472;13.344;2023-06-19T03:23:55;21.38;;;15.15;;
16770;SDS011;8503;52.472;13.344;2023-06-19T03:24:40;20.77;;;15.90;;
16770;SDS011;8503;52.472;13.344;2023-06-19T03:25:23;20.23;;;14.50;;
16770;SDS011;8503;52.472;13.344;2023-06-19T03:26:06;23.88;;;16.30;;
16770;SDS011;8503;52.472;13.344;2023-06-19T03:26:50;20.80;;;14.40;;
16770;SDS011;8503;52.472;13.344;2023-06-19T03:27:33;18.38;;;13.85;;
16770;SDS011;8503;52.472;13.344;2023-06-19T03:28:17;22.35;;;14.93;;
16770;SDS011;8503;52.472;13.344;2023-06-19T03:29:01;22.08;;;14.88;;
16770;SDS011;8503;52.472;13.344;2023-06-19T03:29:45;22.52;;;16.40;;
16770;SDS011;8503;52.472;13.344;2023-06-19T03:30:29;22.77;;;15.75;;
16770;SDS011;8503;52.472;13.344;2023-06-19T03:31:14;18.63;;;14.93;;
16770;SDS011;8503;52.472;13.344;2023-06-19T03:31:57;20.92;;;15.57;;
16770;SDS011;8503;52.472;13.344;2023-06-19T03:32:40;21.08;;;14.23;;
16770;SDS011;8503;52.472;13.344;2023-06-19T03:33:23;18.80;;;15.32;;
16770;SDS011;8503;52.472;13.344;2023-06-19T03:34:06;21.73;;;16.70;;
16770;SDS011;8503;52.472;13.344;2023-06-19T03:34:49;19.38;;;16.20;;
16770;SDS011;8503;52.472;13.344;2023-06-19T03:35:33;20.30;;;16.17;;
16770;SDS011;8503;52.472;13.344;2023-06-19T03:36:16;18.75;;;14.85;;
16770;SDS011;8503;52.472;13.344;2023-06-19T03:36:59;20.98;;;15.77;;
16770;SDS011;8503;52.472;13.344;2023-06-19T03:37:42;19.90;;;15.90;;
16770;SDS011;8503;52.472;13.344;2023-06-19T03:38:25;19.08;;;14.48;;
16770;SDS011;8503;52.472;13.344;2023-06-19T03:39:09;18.02;;;14.63;;
16770;SDS011;8503;52.472;13.344;2023-06-19T03:39:53;20.38;;;16.25;;
16770;SDS011;8503;52.472;13.344;2023-06-19T03:40:37;20.85;;;16.23;;
16770;SDS011;8503;52.472;13.344;2023-06-19T03:41:19;19.38;;;15.15;;
16770;SDS011;8503;52.472;13.344;2023-06-19T03:42:02;19.20;;;14.80;;
16770;SDS011;8503;52.472;13.344;2023-06-19T03:42:47;19.80;;;15.75;;
16770;SDS011;8503;52.472;13.344;2023-06-19T03:43:29;18.27;;;14.30;;
16770;SDS011;8503;52.472;13.344;2023-06-19T03:44:12;21.23;;;16.90;;
16770;SDS011;8503;52.472;13.344;2023-06-19T03:44:56;20.08;;;14.88;;
16770;SDS011;8503;52.472;13.344;2023-06-19T03:45:39;20.85;;;15.13;;
16770;SDS011;8503;52.472;13.344;2023-06-19T03:46:23;20.15;;;15.95;;
16770;SDS011;8503;52.472;13.344;2023-06-19T03:47:06;17.70;;;14.52;;
16770;SDS011;8503;52.472;13.344;2023-06-19T03:47:50;19.60;;;15.10;;
16770;SDS011;8503;52.472;13.344;2023-06-19T03:48:33;18.92;;;15.38;;
16770;SDS011;8503;52.472;13.344;2023-06-19T03:49:17;18.52;;;14.65;;
16770;SDS011;8503;52.472;13.344;2023-06-19T03:50:00;20.27;;;14.82;;
16770;SDS011;8503;52.472;13.344;2023-06-19T03:51:01;20.27;;;15.43;;
16770;SDS011;8503;52.472;13.344;2023-06-19T03:51:44;18.85;;;15.00;;
16770;SDS011;8503;52.472;13.344;2023-06-19T03:52:28;18.95;;;14.55;;
16770;SDS011;8503;52.472;13.344;2023-06-19T03:53:11;21.17;;;15.45;;
16770;SDS011;8503;52.472;13.344;2023-06-19T03:53:54;18.83;;;13.85;;
16770;SDS011;8503;52.472;13.344;2023-06-19T03:54:37;21.73;;;16.25;;
16770;SDS011;8503;52.472;13.344;2023-06-19T03:55:21;20.80;;;16.17;;
16770;SDS011;8503;52.472;13.344;2023-06-19T03:56:04;18.77;;;15.43;;
16770;SDS011;8503;52.472;13.344;2023-06-19T03:56:48;19.48;;;15.23;;
16770;SDS011;8503;52.472;13.344;2023-06-19T03:57:31;20.05;;;14.70;;
16770;SDS011;8503;52.472;13.344;2023-06-19T03:58:14;19.45;;;14.65;;
16770;SDS011;8503;52.472;13.344;2023-06-19T03:58:57;18.77;;;15.15;;
16770;SDS011;8503;52.472;13.344;2023-06-19T03:59:41;21.27;;;16.60;;
16770;SDS011;8503;52.472;13.344;2023-06-19T04:00:25;20.80;;;15.55;;
16770;SDS011;8503;52.472;13.344;2023-06-19T04:01:08;21.92;;;15.65;;
16770;SDS011;8503;52.472;13.344;2023-06-19T04:01:52;22.17;;;16.58;;
16770;SDS011;8503;52.472;13.344;2023-06-19T04:02:34;20.98;;;15.48;;
16770;SDS011;8503;52.472;13.344;2023-06-19T04:03:18;20.35;;;15.05;;
16770;SDS011;8503;52.472;13.344;2023-06-19T04:04:01;19.77;;;15.70;;
16770;SDS011;8503;52.472;13.344;2023-06-19T04:04:45;18.95;;;14.05;;
16770;SDS011;8503;52.472;13.344;2023-06-19T04:05:29;23.58;;;17.40;;
16770;SDS011;8503;52.472;13.344;2023-06-19T04:06:12;19.70;;;16.15;;
16770;SDS011;8503;52.472;13.344;2023-06-19T04:06:55;18.48;;;14.45;;
16770;SDS011;8503;52.472;13.344;2023-06-19T04:07:40;25.40;;;17.77;;
16770;SDS011;8503;52.472;13.344;2023-06-19T04:08:23;21.17;;;14.60;;
16770;SDS011;8503;52.472;13.344;2023-06-19T04:09:06;23.73;;;16.38;;
16770;SDS011;8503;52.472;13.344;2023-06-19T04:09:50;20.88;;;16.65;;
16770;SDS011;8503;52.472;13.344;2023-06-19T04:10:34;21.13;;;16.73;;
16770;SDS011;8503;52.472;13.344;2023-06-19T04:11:18;19.00;;;15.23;;
16770;SDS011;8503;52.472;13.344;2023-06-19T04:12:01;19.30;;;14.80;;
16770;SDS011;8503;52.472;13.344;2023-06-19T04:12:45;21.38;;;15.27;;
16770;SDS011;8503;52.472;13.344;2023-06-19T04:13:29;20.15;;;14.90;;
16770;SDS011;8503;52.472;13.344;2023-06-19T04:14:12;21.35;;;15.30;;
16770;SDS011;8503;52.472;13.344;2023-06-19T04:14:54;20.27;;;15.05;;
16770;SDS011;8503;52.472;13.344;2023-06-19T04:15:38;22.33;;;16.40;;
16770;SDS011;8503;52.472;13.344;2023-06-19T04:16:21;21.10;;;13.82;;
16770;SDS011;8503;52.472;13.344;2023-06-19T04:17:05;22.58;;;17.35;;
16770;SDS011;8503;52.472;13.344;2023-06-19T04:17:48;21.10;;;15.77;;
16770;SDS011;8503;52.472;13.344;2023-06-19T04:18:32;20.83;;;15.45;;